createdAt,value
2023-04-14T00:01:56.474Z,4.47
2023-04-14T00:04:23.172Z,4.60
2023-04-14T00:06:49.953Z,4.52
2023-04-14T00:09:16.436Z,4.50
2023-04-14T00:11:42.927Z,4.55
2023-04-14T00:14:09.380Z,4.51
2023-04-14T00:16:36.034Z,4.55
2023-04-14T00:19:02.917Z,4.40
2023-04-14T00:21:29.575Z,4.37
2023-04-14T00:23:56.748Z,4.45
2023-04-14T00:26:23.270Z,4.55
2023-04-14T00:28:49.724Z,4.52
2023-04-14T00:31:16.368Z,4.41
2023-04-14T00:33:42.897Z,4.25
2023-04-14T00:36:09.379Z,4.02
2023-04-14T00:38:35.874Z,4.18
2023-04-14T00:41:02.397Z,4.15
2023-04-14T00:43:28.875Z,3.85
2023-04-14T00:45:55.497Z,3.77
2023-04-14T00:48:22.024Z,3.64
2023-04-14T00:50:48.571Z,3.78
2023-04-14T00:53:15.090Z,3.88
2023-04-14T00:55:41.615Z,3.77
2023-04-14T00:58:08.366Z,3.55
2023-04-14T01:00:35.336Z,3.42
2023-04-14T01:03:01.925Z,3.27
2023-04-14T01:05:28.668Z,3.41
2023-04-14T01:07:55.353Z,3.54
2023-04-14T01:10:21.880Z,3.66
2023-04-14T01:13:04.326Z,3.33
2023-04-14T01:15:36.085Z,3.31
2023-04-14T01:18:14.707Z,3.31
2023-04-14T01:20:42.527Z,3.33
2023-04-14T01:23:11.692Z,3.29
2023-04-14T01:26:17.123Z,3.45
2023-04-14T01:29:02.482Z,3.42
2023-04-14T01:31:49.283Z,3.52
2023-04-14T01:34:39.162Z,3.49
2023-04-14T01:37:12.523Z,3.22
2023-04-14T01:39:40.507Z,3.18
2023-04-14T01:42:11.354Z,3.46
2023-04-14T01:44:38.725Z,3.42
2023-04-14T01:47:07.736Z,3.62
2023-04-14T01:49:35.493Z,3.55
2023-04-14T01:52:02.328Z,3.55
2023-04-14T01:54:28.809Z,3.64
2023-04-14T01:56:55.275Z,3.71
2023-04-14T01:59:22.561Z,3.64
2023-04-14T02:01:50.485Z,3.59
2023-04-14T02:04:18.147Z,3.28
2023-04-14T02:06:44.733Z,3.26
2023-04-14T02:09:12.886Z,3.43
2023-04-14T02:11:39.896Z,3.47
2023-04-14T02:14:06.388Z,3.45
2023-04-14T02:16:33.661Z,3.38
2023-04-14T02:19:00.436Z,3.36
2023-04-14T02:21:27.192Z,3.40
2023-04-14T02:23:53.676Z,3.34
2023-04-14T02:26:22.173Z,3.46
2023-04-14T02:28:58.920Z,3.41
2023-04-14T02:31:25.699Z,3.43
2023-04-14T02:33:54.835Z,3.46
2023-04-14T02:36:23.731Z,3.60
2023-04-14T02:38:56.707Z,3.54
2023-04-14T02:41:27.081Z,3.38
2023-04-14T02:44:07.485Z,3.45
2023-04-14T02:46:37.561Z,3.38
2023-04-14T02:49:12.933Z,3.57
2023-04-14T02:51:39.667Z,3.55
2023-04-14T02:54:06.170Z,3.51
2023-04-14T02:56:32.884Z,3.42
2023-04-14T02:58:59.557Z,3.45
2023-04-14T03:01:26.257Z,3.32
2023-04-14T03:03:53.312Z,3.19
2023-04-14T03:06:20.199Z,3.24
2023-04-14T03:08:47.455Z,3.15
2023-04-14T03:11:14.698Z,3.08
2023-04-14T03:13:42.000Z,3.02
2023-04-14T03:16:09.442Z,2.93
2023-04-14T03:18:36.055Z,2.84
2023-04-14T03:21:02.737Z,2.81
2023-04-14T03:23:29.198Z,2.65
2023-04-14T03:25:55.738Z,2.65
2023-04-14T03:28:23.602Z,2.58
2023-04-14T03:30:51.615Z,2.53
2023-04-14T03:33:20.429Z,2.50
2023-04-14T03:35:46.976Z,2.47
2023-04-14T03:38:17.389Z,2.63
2023-04-14T03:40:46.352Z,2.55
2023-04-14T03:43:14.095Z,2.35
2023-04-14T03:45:40.730Z,2.48
2023-04-14T03:48:09.912Z,2.44
2023-04-14T03:50:37.016Z,2.56
2023-04-14T03:53:04.165Z,2.59
2023-04-14T03:55:31.815Z,2.52
2023-04-14T03:57:58.873Z,2.58
2023-04-14T04:00:26.157Z,2.69
2023-04-14T04:02:53.810Z,2.69
2023-04-14T04:05:21.138Z,2.60
2023-04-14T04:07:48.203Z,2.63
2023-04-14T04:10:14.684Z,2.50
2023-04-14T04:12:44.423Z,2.51
2023-04-14T04:15:11.349Z,2.50
2023-04-14T04:17:38.072Z,2.39
2023-04-14T04:20:14.406Z,2.27
2023-04-14T04:22:41.874Z,2.32
2023-04-14T04:25:08.850Z,2.53
2023-04-14T04:27:35.366Z,2.55
2023-04-14T04:30:01.946Z,2.62
2023-04-14T04:32:28.620Z,2.70
2023-04-14T04:34:55.201Z,2.59
2023-04-14T04:37:21.724Z,2.67
2023-04-14T04:39:48.673Z,2.59
2023-04-14T04:42:15.237Z,2.76
2023-04-14T04:44:41.871Z,2.86
2023-04-14T04:47:08.368Z,2.85
2023-04-14T04:49:34.819Z,2.71
2023-04-14T04:52:01.310Z,2.71
2023-04-14T04:54:27.828Z,2.89
2023-04-14T04:56:54.334Z,2.86
2023-04-14T04:59:20.822Z,2.96
2023-04-14T05:01:47.471Z,3.09
2023-04-14T05:04:14.114Z,3.06
2023-04-14T05:06:40.852Z,3.09
2023-04-14T05:09:07.328Z,3.30
2023-04-14T05:11:33.955Z,3.55
2023-04-14T05:14:00.545Z,3.57
2023-04-14T05:16:28.240Z,3.69
2023-04-14T05:18:54.729Z,3.85
2023-04-14T05:21:21.648Z,3.94
2023-04-14T05:23:48.218Z,4.18
2023-04-14T05:26:40.247Z,4.22
2023-04-14T05:29:01.890Z,4.31
2023-04-14T05:31:28.503Z,4.34
2023-04-14T05:33:55.117Z,4.47
2023-04-14T05:36:21.608Z,4.62
2023-04-14T05:38:48.112Z,4.79
2023-04-14T05:41:14.638Z,4.96
2023-04-14T05:43:41.149Z,5.11
2023-04-14T05:46:07.768Z,5.32
2023-04-14T05:48:36.325Z,5.48
2023-04-14T05:51:02.810Z,5.74
2023-04-14T05:53:29.342Z,5.94
2023-04-14T05:55:57.237Z,6.11
2023-04-14T05:58:26.238Z,6.19
2023-04-14T06:00:52.833Z,6.28
2023-04-14T06:03:19.695Z,6.34
2023-04-14T06:05:48.164Z,6.47
2023-04-14T06:08:14.667Z,6.62
2023-04-14T06:10:41.366Z,6.79
2023-04-14T06:13:08.615Z,6.88
2023-04-14T06:15:35.297Z,6.90
2023-04-14T06:18:01.894Z,6.89
2023-04-14T06:20:29.585Z,6.96
2023-04-14T06:22:57.232Z,7.03
2023-04-14T06:25:23.729Z,7.18
2023-04-14T06:27:50.208Z,7.39
2023-04-14T06:30:16.881Z,7.55
2023-04-14T06:32:43.527Z,7.65
2023-04-14T06:35:19.103Z,7.81
2023-04-14T06:37:52.406Z,7.97
2023-04-14T06:40:18.915Z,8.06
2023-04-14T06:42:45.466Z,8.13
2023-04-14T06:45:12.042Z,8.07
2023-04-14T06:47:38.643Z,8.08
2023-04-14T06:50:05.566Z,8.05
2023-04-14T06:52:32.093Z,8.19
2023-04-14T06:54:58.551Z,8.16
2023-04-14T06:57:26.339Z,8.26
2023-04-14T06:59:52.912Z,8.35
2023-04-14T07:02:19.491Z,8.42
2023-04-14T07:04:46.077Z,8.62
2023-04-14T07:07:14.350Z,8.93
2023-04-14T07:09:43.871Z,9.14
2023-04-14T07:12:14.471Z,9.37
2023-04-14T07:14:41.326Z,9.16
2023-04-14T07:17:08.053Z,9.22
2023-04-14T07:19:34.567Z,9.44
2023-04-14T07:22:01.932Z,9.65
2023-04-14T07:24:28.412Z,9.97
2023-04-14T07:26:54.875Z,9.97
2023-04-14T07:29:21.581Z,9.90
2023-04-14T07:31:48.497Z,9.86
2023-04-14T07:34:15.087Z,9.97
2023-04-14T07:36:41.631Z,10.11
2023-04-14T07:39:08.244Z,10.19
2023-04-14T07:41:34.710Z,10.38
2023-04-14T07:44:01.369Z,10.47
2023-04-14T07:46:28.056Z,10.66
2023-04-14T07:48:54.616Z,10.96
2023-04-14T07:51:21.399Z,10.66
2023-04-14T07:53:47.965Z,10.73
2023-04-14T07:56:14.899Z,10.95
2023-04-14T07:58:41.388Z,11.02
2023-04-14T08:01:08.050Z,11.02
2023-04-14T08:03:37.196Z,11.00
2023-04-14T08:06:05.712Z,11.04
2023-04-14T08:08:32.720Z,10.84
2023-04-14T08:10:59.233Z,11.28
2023-04-14T08:13:25.904Z,10.97
2023-04-14T08:15:52.483Z,11.22
2023-04-14T08:18:19.045Z,11.45
2023-04-14T08:20:45.585Z,11.88
2023-04-14T08:23:12.226Z,11.75
2023-04-14T08:25:38.736Z,11.88
2023-04-14T08:28:05.683Z,11.50
2023-04-14T08:30:32.214Z,11.56
2023-04-14T08:32:58.934Z,11.39
2023-04-14T08:35:36.838Z,11.59
2023-04-14T08:38:07.805Z,11.62
2023-04-14T08:40:41.265Z,11.96
2023-04-14T08:43:07.827Z,12.31
2023-04-14T08:45:34.357Z,12.20
2023-04-14T08:48:01.840Z,12.32
2023-04-14T08:50:33.299Z,11.83
2023-04-14T08:53:01.091Z,11.93
2023-04-14T08:55:27.576Z,12.09
2023-04-14T08:57:54.053Z,12.06
2023-04-14T09:00:20.644Z,12.40
2023-04-14T09:02:47.501Z,12.97
2023-04-14T09:05:14.164Z,13.29
2023-04-14T09:07:42.652Z,13.26
2023-04-14T09:10:11.064Z,12.87
2023-04-14T09:12:41.586Z,12.81
2023-04-14T09:15:08.884Z,12.81
2023-04-14T09:17:36.703Z,12.50
2023-04-14T09:20:38.037Z,12.68
2023-04-14T09:22:50.002Z,12.41
2023-04-14T09:25:16.499Z,12.80
2023-04-14T09:27:42.969Z,12.83
2023-04-14T09:30:09.756Z,12.48
2023-04-14T09:32:36.876Z,12.33
2023-04-14T09:35:03.440Z,12.45
2023-04-14T09:37:41.124Z,12.80
2023-04-14T09:40:08.277Z,13.24
2023-04-14T09:42:42.519Z,13.35
2023-04-14T09:45:09.601Z,13.44
2023-04-14T09:47:36.161Z,13.54
2023-04-14T09:50:04.120Z,13.78
2023-04-14T09:52:41.019Z,14.03
2023-04-14T09:55:12.268Z,13.76
2023-04-14T09:57:42.669Z,14.01
2023-04-14T10:00:27.270Z,13.63
2023-04-14T10:02:59.098Z,13.90
2023-04-14T10:05:29.299Z,14.18
2023-04-14T10:08:05.261Z,13.96
2023-04-14T10:10:31.766Z,14.18
2023-04-14T10:12:59.795Z,13.66
2023-04-14T10:15:26.336Z,13.60
2023-04-14T10:17:52.824Z,14.30
2023-04-14T10:20:19.384Z,13.52
2023-04-14T10:22:46.000Z,12.70
2023-04-14T10:25:13.514Z,12.64
2023-04-14T10:27:40.163Z,13.15
2023-04-14T10:30:08.670Z,13.21
2023-04-14T10:32:35.445Z,13.82
2023-04-14T10:35:09.176Z,14.08
2023-04-14T10:37:35.731Z,13.77
2023-04-14T10:40:07.154Z,14.53
2023-04-14T10:42:57.236Z,14.45
2023-04-14T10:45:23.754Z,14.84
2023-04-14T10:47:50.844Z,14.93
2023-04-14T10:50:18.099Z,14.68
2023-04-14T10:52:55.695Z,14.83
2023-04-14T10:55:26.041Z,14.81
2023-04-14T10:57:54.515Z,14.58
2023-04-14T11:00:21.969Z,14.65
2023-04-14T11:03:05.498Z,15.15
2023-04-14T11:05:33.968Z,15.27
2023-04-14T11:08:03.100Z,14.91
2023-04-14T11:10:33.093Z,14.77
2023-04-14T11:13:02.340Z,14.99
2023-04-14T11:15:48.440Z,14.71
2023-04-14T11:18:21.598Z,15.08
2023-04-14T11:20:48.248Z,15.10
2023-04-14T11:23:15.282Z,14.42
2023-04-14T11:25:41.901Z,13.93
2023-04-14T11:28:08.773Z,13.52
2023-04-14T11:30:35.287Z,13.26
2023-04-14T11:33:01.847Z,13.03
2023-04-14T11:35:28.612Z,12.88
2023-04-14T11:37:59.303Z,13.00
2023-04-14T11:40:27.241Z,12.60
2023-04-14T11:42:57.466Z,12.53
2023-04-14T11:45:28.036Z,12.81
2023-04-14T11:48:01.751Z,14.09
2023-04-14T11:50:31.398Z,15.28
2023-04-14T11:53:02.841Z,16.28
2023-04-14T11:55:29.457Z,16.41
2023-04-14T11:57:56.107Z,17.00
2023-04-14T12:00:22.653Z,16.24
2023-04-14T12:02:49.415Z,17.07
2023-04-14T12:05:22.207Z,17.48
2023-04-14T12:07:49.214Z,17.13
2023-04-14T12:10:16.014Z,16.49
2023-04-14T12:12:42.655Z,16.43
2023-04-14T12:15:09.567Z,17.04
2023-04-14T12:17:36.328Z,17.04
2023-04-14T12:20:03.919Z,16.80
2023-04-14T12:22:30.735Z,16.90
2023-04-14T12:24:57.753Z,17.15
2023-04-14T12:27:25.125Z,16.54
2023-04-14T12:29:51.730Z,16.48
2023-04-14T12:32:18.589Z,16.03
2023-04-14T12:34:57.396Z,15.60
2023-04-14T12:37:26.146Z,15.76
2023-04-14T12:40:00.243Z,16.13
2023-04-14T12:42:27.454Z,15.46
2023-04-14T12:45:00.755Z,14.73
2023-04-14T12:47:28.943Z,14.02
2023-04-14T12:49:56.712Z,13.84
2023-04-14T12:52:39.683Z,13.90
2023-04-14T12:55:07.720Z,13.96
2023-04-14T12:57:34.646Z,14.24
2023-04-14T13:00:02.056Z,13.92
2023-04-14T13:02:29.830Z,13.26
2023-04-14T13:04:56.771Z,13.41
2023-04-14T13:07:23.480Z,13.43
2023-04-14T13:09:51.393Z,13.29
2023-04-14T13:12:18.571Z,13.45
2023-04-14T13:14:45.215Z,13.41
2023-04-14T13:17:11.825Z,13.29
2023-04-14T13:19:38.379Z,13.55
2023-04-14T13:22:04.935Z,13.55
2023-04-14T13:24:31.396Z,13.49
2023-04-14T13:26:57.926Z,13.71
2023-04-14T13:29:24.480Z,13.97
2023-04-14T13:31:51.205Z,14.10
2023-04-14T13:34:17.739Z,14.07
2023-04-14T13:36:45.567Z,13.76
2023-04-14T13:39:12.335Z,13.44
2023-04-14T13:41:38.858Z,13.25
2023-04-14T13:44:05.657Z,13.38
2023-04-14T13:46:40.500Z,14.27
2023-04-14T13:49:07.569Z,14.87
2023-04-14T13:51:34.057Z,15.27
2023-04-14T13:54:00.769Z,15.09
2023-04-14T13:56:27.376Z,15.27
2023-04-14T13:58:53.952Z,16.18
2023-04-14T14:01:20.657Z,15.41
2023-04-14T14:03:47.715Z,16.02
2023-04-14T14:06:14.549Z,16.01
2023-04-14T14:08:42.242Z,15.50
2023-04-14T14:11:09.588Z,14.83
2023-04-14T14:13:36.920Z,14.81
2023-04-14T14:16:03.780Z,15.23
2023-04-14T14:18:30.396Z,15.77
2023-04-14T14:20:57.158Z,15.73
2023-04-14T14:23:24.923Z,15.66
2023-04-14T14:25:52.182Z,16.03
2023-04-14T14:28:21.001Z,15.49
2023-04-14T14:30:47.626Z,15.27
2023-04-14T14:33:14.364Z,15.02
2023-04-14T14:35:40.830Z,15.35
2023-04-14T14:38:07.304Z,15.43
2023-04-14T14:40:33.839Z,15.08
2023-04-14T14:43:00.335Z,15.27
2023-04-14T14:45:30.792Z,15.00
2023-04-14T14:47:57.949Z,13.71
2023-04-14T14:50:24.491Z,13.77
2023-04-14T14:52:50.975Z,13.74
2023-04-14T14:55:17.557Z,13.66
2023-04-14T14:57:44.031Z,13.39
2023-04-14T15:00:11.001Z,13.37
2023-04-14T15:02:38.536Z,13.35
2023-04-14T15:05:05.836Z,13.54
2023-04-14T15:07:32.379Z,13.42
2023-04-14T15:09:58.865Z,13.62
2023-04-14T15:12:25.382Z,13.49
2023-04-14T15:14:51.880Z,13.83
2023-04-14T15:17:18.368Z,14.00
2023-04-14T15:19:44.903Z,13.97
2023-04-14T15:22:11.417Z,13.93
2023-04-14T15:24:38.301Z,13.90
2023-04-14T15:27:04.784Z,13.48
2023-04-14T15:29:31.626Z,13.54
2023-04-14T15:31:58.193Z,13.45
2023-04-14T15:34:25.257Z,13.53
2023-04-14T15:36:51.783Z,13.46
2023-04-14T15:39:18.332Z,13.43
2023-04-14T15:41:47.439Z,13.08
2023-04-14T15:44:14.016Z,13.12
2023-04-14T15:46:40.480Z,13.30
2023-04-14T15:49:06.952Z,13.11
2023-04-14T15:51:34.626Z,13.11
2023-04-14T15:54:01.954Z,13.29
2023-04-14T15:56:28.678Z,12.93
2023-04-14T15:58:55.153Z,12.88
2023-04-14T16:01:21.788Z,12.86
2023-04-14T16:03:50.384Z,12.86
2023-04-14T16:06:18.522Z,12.91
2023-04-14T16:08:44.991Z,12.88
2023-04-14T16:11:15.760Z,12.98
2023-04-14T16:13:44.012Z,12.95
2023-04-14T16:16:12.788Z,12.77
2023-04-14T16:18:39.350Z,12.74
2023-04-14T16:21:05.976Z,12.63
2023-04-14T16:23:32.449Z,12.53
2023-04-14T16:25:58.919Z,12.55
2023-04-14T16:28:25.765Z,12.51
2023-04-14T16:30:52.301Z,12.34
2023-04-14T16:33:19.001Z,12.24
2023-04-14T16:35:45.478Z,12.21
2023-04-14T16:38:12.217Z,12.13
2023-04-14T16:40:38.758Z,12.18
2023-04-14T16:43:05.436Z,12.00
2023-04-14T16:45:32.125Z,12.03
2023-04-14T16:47:58.726Z,11.89
2023-04-14T16:50:25.267Z,12.02
2023-04-14T16:52:52.386Z,11.89
2023-04-14T16:55:18.839Z,11.88
2023-04-14T16:57:45.630Z,11.77
2023-04-14T17:00:13.722Z,11.56
2023-04-14T17:02:41.236Z,11.53
2023-04-14T17:05:10.254Z,11.39
2023-04-14T17:07:37.012Z,11.30
2023-04-14T17:10:03.627Z,11.12
2023-04-14T17:12:30.130Z,11.00
2023-04-14T17:14:56.869Z,10.95
2023-04-14T17:17:23.421Z,10.84
2023-04-14T17:19:50.029Z,10.77
2023-04-14T17:22:16.682Z,10.67
2023-04-14T17:24:43.983Z,10.67
2023-04-14T17:27:10.928Z,10.61
2023-04-14T17:29:37.461Z,10.57
2023-04-14T17:32:04.324Z,10.59
2023-04-14T17:34:30.852Z,10.63
2023-04-14T17:36:57.353Z,10.63
2023-04-14T17:39:26.897Z,10.67
2023-04-14T17:41:57.855Z,10.68
2023-04-14T17:44:34.466Z,10.68
2023-04-14T17:47:03.194Z,10.69
2023-04-14T17:49:30.110Z,10.66
2023-04-14T17:51:57.017Z,10.70
2023-04-14T17:54:23.486Z,10.67
2023-04-14T17:56:50.319Z,10.61
2023-04-14T17:59:17.011Z,10.57
2023-04-14T18:01:43.676Z,10.57
2023-04-14T18:04:10.406Z,10.45
2023-04-14T18:06:36.921Z,10.49
2023-04-14T18:09:04.036Z,10.39
2023-04-14T18:11:30.762Z,10.50
2023-04-14T18:13:58.317Z,10.30
2023-04-14T18:16:25.052Z,10.30
2023-04-14T18:18:51.557Z,10.25
2023-04-14T18:21:18.658Z,10.23
2023-04-14T18:23:45.408Z,10.05
2023-04-14T18:28:41.519Z,9.90
2023-04-14T18:31:08.697Z,9.90
2023-04-14T18:33:35.236Z,9.75
2023-04-14T18:36:02.055Z,9.73
2023-04-14T18:38:28.680Z,9.67
2023-04-14T18:41:01.213Z,9.71
2023-04-14T18:43:28.302Z,9.57
2023-04-14T18:45:55.103Z,9.58
2023-04-14T18:48:21.647Z,9.56
2023-04-14T18:50:49.125Z,9.52
2023-04-14T18:53:16.004Z,9.48
2023-04-14T18:55:45.463Z,9.47
2023-04-14T18:58:12.934Z,9.37
2023-04-14T19:00:39.875Z,9.29
2023-04-14T19:03:08.493Z,9.28
2023-04-14T19:05:36.831Z,9.31
2023-04-14T19:08:06.916Z,9.27
2023-04-14T19:10:33.926Z,9.22
2023-04-14T19:13:00.394Z,9.14
2023-04-14T19:15:27.742Z,9.11
2023-04-14T19:17:55.051Z,9.18
2023-04-14T19:20:21.972Z,8.94
2023-04-14T19:22:49.463Z,8.81
2023-04-14T19:25:16.546Z,8.72
2023-04-14T19:27:43.543Z,8.79
2023-04-14T19:30:10.809Z,8.72
2023-04-14T19:32:37.472Z,8.58
2023-04-14T19:35:06.600Z,8.51
2023-04-14T19:37:33.852Z,8.46
2023-04-14T19:40:00.844Z,8.56
2023-04-14T19:42:27.340Z,8.56
2023-04-14T19:44:53.792Z,8.42
2023-04-14T19:47:20.321Z,8.45
2023-04-14T19:49:46.821Z,8.23
2023-04-14T19:52:13.309Z,8.29
2023-04-14T19:54:39.872Z,8.22
2023-04-14T19:57:06.759Z,8.31
2023-04-14T19:59:33.393Z,8.23
2023-04-14T20:02:01.947Z,8.10
2023-04-14T20:04:28.512Z,8.17
2023-04-14T20:06:55.263Z,7.99
2023-04-14T20:09:21.767Z,7.63
2023-04-14T20:11:48.264Z,7.57
2023-04-14T20:14:16.107Z,7.27
2023-04-14T20:16:42.809Z,7.28
2023-04-14T20:19:09.441Z,7.26
2023-04-14T20:21:35.943Z,7.12
2023-04-14T20:24:03.093Z,6.93
2023-04-14T20:26:29.573Z,6.86
2023-04-14T20:28:56.107Z,7.07
2023-04-14T20:31:23.822Z,7.19
2023-04-14T20:33:50.947Z,7.22
2023-04-14T20:36:17.523Z,6.89
2023-04-14T20:38:44.041Z,7.02
2023-04-14T20:41:10.538Z,6.91
2023-04-14T20:43:37.048Z,6.72
2023-04-14T20:46:04.143Z,6.56
2023-04-14T20:48:32.079Z,6.52
2023-04-14T20:50:59.625Z,6.66
2023-04-14T20:53:28.232Z,6.62
2023-04-14T20:55:55.010Z,6.80
2023-04-14T20:58:21.506Z,6.69
2023-04-14T21:00:48.025Z,6.95
2023-04-14T21:03:14.616Z,7.08
2023-04-14T21:05:41.262Z,7.09
2023-04-14T21:08:08.322Z,6.95
2023-04-14T21:10:35.577Z,6.89
2023-04-14T21:15:31.035Z,6.67
2023-04-14T21:16:09.113Z,6.57
2023-04-14T21:18:36.323Z,6.58
2023-04-14T21:21:04.731Z,6.57
2023-04-14T21:23:31.569Z,6.66
2023-04-14T21:25:59.795Z,6.57
2023-04-14T21:28:26.332Z,6.55
2023-04-14T21:30:55.822Z,6.39
2023-04-14T21:33:22.329Z,6.27
2023-04-14T21:35:49.531Z,6.35
2023-04-14T21:38:16.224Z,6.31
2023-04-14T21:40:43.248Z,6.24
2023-04-14T21:43:09.719Z,6.10
2023-04-14T21:45:36.801Z,6.13
2023-04-14T21:48:03.477Z,6.24
2023-04-14T21:50:31.968Z,6.28
2023-04-14T21:53:00.070Z,6.24
2023-04-14T21:55:26.545Z,6.20
2023-04-14T21:57:54.586Z,6.10
2023-04-14T22:00:21.342Z,6.19
2023-04-14T22:02:48.270Z,6.22
2023-04-14T22:05:15.003Z,6.28
2023-04-14T22:07:41.534Z,6.24
2023-04-14T22:10:08.230Z,6.35
2023-04-14T22:12:35.972Z,6.25
2023-04-14T22:15:03.802Z,6.22
2023-04-14T22:17:31.157Z,6.14
2023-04-14T22:19:57.701Z,6.05
2023-04-14T22:22:24.379Z,5.92
2023-04-14T22:24:51.740Z,6.04
2023-04-14T22:27:18.281Z,6.04
2023-04-14T22:29:44.762Z,6.01
2023-04-14T22:32:11.450Z,6.03
2023-04-14T22:34:37.986Z,5.94
2023-04-14T22:37:04.528Z,5.89
2023-04-14T22:39:31.271Z,5.81
2023-04-14T22:41:58.016Z,5.80
2023-04-14T22:44:24.477Z,5.80
2023-04-14T22:46:50.956Z,5.83
2023-04-14T22:49:17.440Z,5.85
2023-04-14T22:51:43.966Z,5.84
2023-04-14T22:54:10.432Z,5.80
2023-04-14T22:56:37.217Z,5.88
2023-04-14T22:59:04.047Z,5.89
2023-04-14T23:01:30.985Z,5.91
2023-04-14T23:03:57.535Z,5.95
2023-04-14T23:06:24.650Z,5.85
2023-04-14T23:08:51.268Z,5.83
2023-04-14T23:11:20.790Z,5.78
2023-04-14T23:13:47.810Z,5.85
2023-04-14T23:16:16.683Z,5.92
2023-04-14T23:18:43.383Z,5.98
2023-04-14T23:21:10.036Z,5.99
2023-04-14T23:23:36.963Z,6.11
2023-04-14T23:26:03.770Z,6.13
2023-04-14T23:28:30.246Z,6.11
2023-04-14T23:30:57.208Z,6.10
2023-04-14T23:33:23.681Z,6.05
2023-04-14T23:35:51.072Z,6.13
2023-04-14T23:38:19.333Z,6.19
2023-04-14T23:40:46.096Z,6.08
2023-04-14T23:43:12.551Z,6.20
2023-04-14T23:45:39.029Z,6.20
2023-04-14T23:48:06.559Z,6.28
2023-04-14T23:51:01.052Z,6.11
2023-04-14T23:53:20.047Z,6.15
2023-04-14T23:55:47.575Z,6.04
2023-04-14T23:58:25.989Z,6.02
